• Join FlightAware (Why Join?)
  • Login
  • US Flag 
03:15AM EST


 

Airport Tracker/Info


-or-


 

Live Flight TrackerFlight Track Log ✈ AMF1324 ✈ 25-Mar-2014 ✈ KBGM - KBUF

Flight Track Log - Related Links

Times and Time Zones

All times are in EDT time to prevent confusion due to time zone crossing. See the AMF1324 flight status page for this flight to view local times or setup timezone preferences in your user account.

Time Position Orientation Groundspeed Altitude Reporting Facility
EDT Latitude Longitude Course Direction KTS MPH feet Rate Location/Type
08:28AM 42.2625 -75.9908 280° West 184 212 7,500  Level New York Center
08:29AM 42.2717 -76.0644 280° West 189 217 8,000 1,020 Climbing New York Center
08:30AM 42.2806 -76.1436 279° West 208 239 9,600 1,740 Climbing New York Center
08:31AM 42.2942 -76.2147 285° West 208 239 11,500 720 Climbing New York Center
08:33AM 42.3300 -76.3889 286° West 223 257 12,100 180 Climbing Cleveland Center
08:34AM 42.3414 -76.4733 280° West 224 258 12,100  Level Cleveland Center
08:35AM 42.3542 -76.5564 282° West 224 258 12,100  Level Cleveland Center
08:36AM 42.3844 -76.6347 298° West 229 264 12,100 -60 Level Cleveland Center
08:37AM 42.4208 -76.7100 303° West 232 267 12,000 -60 Descending Cleveland Center
08:38AM 42.4556 -76.8033 297° West 233 268 12,000  Level Cleveland Center
08:39AM 42.4831 -76.8822 295° West 233 268 12,000  Level Cleveland Center
08:40AM 42.5125 -76.9622 297° West 234 269 12,000  Level Cleveland Center
08:41AM 42.5478 -77.0378 302° West 234 269 12,000  Level Cleveland Center
08:43AM 42.5789 -77.1133 299° West 234 269 12,000  Level Cleveland Center
08:44AM 42.6131 -77.1900 301° West 234 269 12,000  Level Cleveland Center
08:45AM 42.6508 -77.2831 299° West 235 270 12,000  Level Cleveland Center
08:46AM 42.6842 -77.3603 300° West 236 272 12,000  Level Cleveland Center
08:47AM 42.7167 -77.4378 300° West 237 273 12,000  Level Cleveland Center
08:48AM 42.7489 -77.5158 299° West 238 274 12,000  Level Cleveland Center
08:49AM 42.7786 -77.5939 297° West 238 274 12,000  Level Cleveland Center
08:50AM 42.8150 -77.6867 298° West 237 273 12,000  Level Cleveland Center
08:50AM 42.8194 -77.6922 317° Northwest 237 273 12,000  Level Cleveland Center
08:50AM 42.8239 -77.7050 295° West 236 272 12,000 -660 Level Cleveland Center
08:51AM 42.8467 -77.7631 298° West 236 272 11,400 -840 Descending Cleveland Center
08:51AM 42.8483 -77.7864 276° West 231 266 11,200 -1,020 Descending Cleveland Center
08:52AM 42.8531 -77.8528 276° West 244 281 10,400 -1,020 Descending Cleveland Center
08:52AM 42.8547 -77.8747 276° West 239 275 10,200 -1,260 Descending Cleveland Center
08:53AM 42.8558 -77.9533 271° West 245 282 9,100 -1,200 Descending Cleveland Center
08:54AM 42.8706 -78.0492 282° West 248 285 8,000 -1,080 Descending Cleveland Center
08:55AM 42.8950 -78.1397 290° West 246 283 6,900 -1,080 Descending Cleveland Center
08:56AM 42.9158 -78.2294 288° West 241 277 5,800 -1,020 Descending Cleveland Center
08:57AM 42.9383 -78.3119 290° West 240 276 4,900 -780 Descending Cleveland Center
08:58AM 42.9664 -78.3992 294° West 240 276 4,200 -780 Descending Cleveland Center
08:59AM 42.9889 -78.4744 292° West 231 266 3,400 -960 Descending Cleveland Center
09:00AM 43.0114 -78.5539 291° West 202 232 2,300 -540 Descending Cleveland Center
09:01AM 43.0169 -78.6203 277° West 171 197 2,300  Level Cleveland Center
09:02AM 43.0000 -78.6500 232° Southwest 142 163 2,300 -420 Level Buffalo TRACON
09:03AM 42.9833 -78.6833 236° Southwest 114 131 1,700 -600 Descending Buffalo TRACON
09:04AM 42.9500 -78.7000 200° South 114 131 1,100 -600 Descending Buffalo TRACON
09:06AM 42.9333 -78.7167 270° West  Level FlightAware Approximate